Time;durP1;ratioP1;P1;durP2;ratioP2;P2;SDS_P1;SDS_P2;PMS_P1;PMS_P2;Temp;Humidity;BMP_temperature;BMP_pressure;BME280_temperature;BME280_humidity;BME280_pressure;Samples;Min_cycle;Max_cycle;Signal;HPM_P1;HPM_P2
2022/07/10 00:01:46;;;;;;;;;;;;;;;24.66;28.69;102245.28;5043512;28;19976;-73
2022/07/10 00:04:12;;;;;;;;;;;;;;;24.64;29.09;102244.56;5063954;28;19927;-73
2022/07/10 00:06:41;;;;;;;;;;;;;;;24.62;28.62;102243.88;5042609;28;20014;-74
2022/07/10 00:09:08;;;;;;;;;;;;;;;24.60;29.15;102249.59;5061919;28;19920;-74
2022/07/10 00:11:34;;;;;;;;;;;;;;;24.59;29.14;102246.97;5060097;28;20184;-74
2022/07/10 00:14:00;;;;;;;;;;;;;;;24.58;29.11;102245.22;5059130;28;20011;-74
2022/07/10 00:16:27;;;;;;;;;;;;;;;24.56;28.99;102242.59;5058459;28;19921;-73
2022/07/10 00:18:54;;;;;;;;;;;;;;;24.56;28.82;102250.06;5055928;28;19920;-72
2022/07/10 00:21:20;;;;;;;;;;;;;;;24.54;28.80;102247.44;5068417;28;19970;-71
2022/07/10 00:23:47;;;;;;;;;;;;;;;24.53;29.13;102247.63;5044592;28;19924;-74
2022/07/10 00:26:13;;;;;;;;;;;;;;;24.51;29.24;102246.91;5045687;28;19927;-73
2022/07/10 00:28:40;;;;;;;;;;;;;;;24.50;28.99;102243.25;5048948;28;19928;-73
2022/07/10 00:31:07;;;;;;;;;;;;;;;24.50;29.30;102256.25;5047486;28;20438;-73
2022/07/10 00:33:33;;;;;;;;;;;;;;;24.48;29.14;102258.31;5051314;28;20558;-73
2022/07/10 00:35:59;;;;;;;;;;;;;;;24.46;29.02;102255.69;5050202;28;20425;-73
2022/07/10 00:38:26;;;;;;;;;;;;;;;24.44;29.44;102260.56;5049126;28;19975;-73
2022/07/10 00:40:53;;;;;;;;;;;;;;;24.43;29.39;102244.03;5055239;28;19968;-73
2022/07/10 00:43:20;;;;;;;;;;;;;;;24.42;29.54;102239.53;5037315;28;19920;-73
2022/07/10 00:45:48;;;;;;;;;;;;;;;24.40;29.40;102239.66;5054218;28;19930;-73
2022/07/10 00:48:14;;;;;;;;;;;;;;;24.37;29.32;102234.47;5050093;28;20374;-73
2022/07/10 00:50:44;;;;;;;;;;;;;;;24.35;29.13;102230.09;5059788;28;19920;-73
2022/07/10 00:53:12;;;;;;;;;;;;;;;24.33;29.10;102234.91;5065690;28;19964;-73
2022/07/10 00:55:39;;;;;;;;;;;;;;;24.31;29.00;102240.63;5062769;28;20018;-73
2022/07/10 00:58:10;;;;;;;;;;;;;;;24.29;29.53;102239.94;5049246;28;20007;-73
2022/07/10 01:00:37;;;;;;;;;;;;;;;24.27;29.32;102242.88;5045020;28;19925;-73
2022/07/10 01:03:05;;;;;;;;;;;;;;;24.27;29.74;102233.66;5046231;28;20351;-73
2022/07/10 01:05:31;;;;;;;;;;;;;;;24.25;29.20;102232.94;5048609;28;20016;-74
2022/07/10 01:07:58;;;;;;;;;;;;;;;24.25;29.56;102227.38;5053524;28;20436;-73
2022/07/10 01:10:24;;;;;;;;;;;;;;;24.23;29.67;102226.66;5059577;28;19926;-73
2022/07/10 01:12:52;;;;;;;;;;;;;;;24.22;29.55;102225.78;5049590;28;20023;-73
2022/07/10 01:15:18;;;;;;;;;;;;;;;24.22;29.25;102217.47;5052831;28;20003;-73
2022/07/10 01:17:45;;;;;;;;;;;;;;;24.20;29.38;102211.22;5053483;28;19920;-73
2022/07/10 01:20:11;;;;;;;;;;;;;;;24.19;29.68;102203.88;5048840;28;19971;-73
2022/07/10 01:22:38;;;;;;;;;;;;;;;24.19;29.40;102214.13;5045494;28;19967;-73
2022/07/10 01:25:05;;;;;;;;;;;;;;;24.18;29.25;102202.13;5067308;28;20003;-72
2022/07/10 01:27:32;;;;;;;;;;;;;;;24.18;29.60;102198.50;5047239;28;19921;-72
2022/07/10 01:29:58;;;;;;;;;;;;;;;24.17;29.50;102199.50;5041183;28;20018;-72
2022/07/10 01:32:25;;;;;;;;;;;;;;;24.16;29.41;102192.22;5049859;28;19921;-72
2022/07/10 01:34:51;;;;;;;;;;;;;;;24.15;29.77;102182.16;5049484;28;19924;-72
2022/07/10 01:37:18;;;;;;;;;;;;;;;24.13;29.77;102179.53;5045321;28;20007;-72
2022/07/10 01:39:44;;;;;;;;;;;;;;;24.12;29.43;102179.72;5051312;28;20291;-71
2022/07/10 01:42:11;;;;;;;;;;;;;;;24.11;29.47;102184.38;5049042;28;19924;-74
2022/07/10 01:44:37;;;;;;;;;;;;;;;24.10;29.44;102192.84;5049413;28;19931;-72
2022/07/10 01:47:03;;;;;;;;;;;;;;;24.09;29.55;102185.56;5049732;28;20015;-71
2022/07/10 01:49:31;;;;;;;;;;;;;;;24.08;29.57;102197.69;5046836;28;19920;-72
2022/07/10 01:51:57;;;;;;;;;;;;;;;24.07;29.47;102190.38;5044518;28;19971;-71
2022/07/10 01:54:24;;;;;;;;;;;;;;;24.06;29.73;102189.50;5047577;28;20015;-71
2022/07/10 01:56:50;;;;;;;;;;;;;;;24.06;29.91;102180.31;5056568;28;19925;-71
2022/07/10 01:59:17;;;;;;;;;;;;;;;24.05;29.74;102187.75;5059170;28;19931;-72
2022/07/10 02:01:43;;;;;;;;;;;;;;;24.04;29.37;102190.72;5038352;28;20216;-71
2022/07/10 02:07:05;;;;;;;;;;;;;;;23.99;29.89;102180.09;5028389;28;19967;-72
2022/07/10 02:09:32;;;;;;;;;;;;;;;23.99;29.52;102179.22;5047266;28;20012;-71
2022/07/10 02:11:58;;;;;;;;;;;;;;;23.98;29.64;102172.78;5052151;28;19947;-72
2022/07/10 02:14:25;;;;;;;;;;;;;;;23.97;29.66;102173.81;5073001;28;19995;-71
2022/07/10 02:16:51;;;;;;;;;;;;;;;23.96;29.82;102169.31;5047929;28;20443;-73
2022/07/10 02:19:18;;;;;;;;;;;;;;;23.95;29.63;102170.34;5055798;28;19947;-72
2022/07/10 02:21:46;;;;;;;;;;;;;;;23.94;30.06;102171.38;5048350;28;19921;-72
2022/07/10 02:24:12;;;;;;;;;;;;;;;23.92;30.10;102173.41;5044577;28;19974;-72
2022/07/10 02:26:39;;;;;;;;;;;;;;;23.92;30.01;102164.22;5047465;28;19960;-72
2022/07/10 02:29:05;;;;;;;;;;;;;;;23.91;29.79;102166.13;5049792;28;19921;-72
2022/07/10 02:31:34;;;;;;;;;;;;;;;23.90;29.59;102167.16;5045100;28;20011;-72
2022/07/10 02:34:00;;;;;;;;;;;;;;;23.87;30.04;102151.72;5047337;28;19921;-73
2022/07/10 02:36:27;;;;;;;;;;;;;;;23.87;30.18;102153.63;5063111;28;20027;-72
2022/07/10 02:38:53;;;;;;;;;;;;;;;23.86;29.73;102155.53;5048788;28;20007;-72
2022/07/10 02:41:20;;;;;;;;;;;;;;;23.85;30.03;102152.91;5062888;28;20007;-72
2022/07/10 02:43:47;;;;;;;;;;;;;;;23.82;30.22;102165.16;5059090;28;19924;-73
2022/07/10 02:46:14;;;;;;;;;;;;;;;23.83;30.25;102160.50;5046196;28;19921;-73
2022/07/10 02:48:40;;;;;;;;;;;;;;;23.82;30.29;102165.16;5048752;28;20332;-72
2022/07/10 02:51:07;;;;;;;;;;;;;;;23.81;30.19;102165.31;5062573;28;19924;-72
2022/07/10 02:53:34;;;;;;;;;;;;;;;23.80;30.00;102169.16;5061220;28;20368;-72
2022/07/10 02:56:00;;;;;;;;;;;;;;;23.78;29.99;102172.06;5055242;28;19920;-72
2022/07/10 02:58:27;;;;;;;;;;;;;;;23.77;30.33;102172.22;5081392;28;19931;-72
2022/07/10 03:00:53;;;;;;;;;;;;;;;23.76;29.84;102173.25;5045945;28;20107;-72
2022/07/10 03:03:21;;;;;;;;;;;;;;;23.74;30.00;102169.75;5046658;28;19920;-73
2022/07/10 03:05:47;;;;;;;;;;;;;;;23.73;30.43;102171.66;5045762;28;20019;-73
2022/07/10 03:08:13;;;;;;;;;;;;;;;23.71;30.08;102172.84;5051793;28;19920;-72
2022/07/10 03:10:40;;;;;;;;;;;;;;;23.69;30.40;102169.34;5056388;28;19959;-72
2022/07/10 03:13:07;;;;;;;;;;;;;;;23.68;30.10;102173.16;5055515;28;19963;-72
2022/07/10 03:15:33;;;;;;;;;;;;;;;23.67;30.53;102175.06;5056029;28;19971;-73
2022/07/10 03:18:00;;;;;;;;;;;;;;;23.65;30.23;102176.22;5050074;28;20004;-72
2022/07/10 03:20:26;;;;;;;;;;;;;;;23.65;30.54;102179.00;5065112;28;20267;-72
2022/07/10 03:22:53;;;;;;;;;;;;;;;23.64;30.24;102180.91;5053118;28;19920;-73
2022/07/10 03:25:20;;;;;;;;;;;;;;;23.64;30.67;102185.56;5049930;28;20355;-72
2022/07/10 03:27:46;;;;;;;;;;;;;;;23.63;30.53;102175.53;5063988;28;20007;-72
2022/07/10 03:30:12;;;;;;;;;;;;;;;23.62;30.49;102180.22;5061185;28;19920;-73
2022/07/10 03:32:39;;;;;;;;;;;;;;;23.62;30.79;102184.88;5045295;28;19921;-72
2022/07/10 03:35:05;;;;;;;;;;;;;;;23.60;30.54;102173.06;5050450;28;20019;-73
2022/07/10 03:37:32;;;;;;;;;;;;;;;23.60;30.67;102182.25;5049909;28;20015;-72
2022/07/10 03:39:58;;;;;;;;;;;;;;;23.59;30.73;102177.72;5049391;28;19968;-73
2022/07/10 03:42:25;;;;;;;;;;;;;;;23.58;30.31;102178.75;5050181;28;20331;-73
2022/07/10 03:44:51;;;;;;;;;;;;;;;23.57;30.75;102177.00;5042085;28;20291;-73
2022/07/10 03:47:18;;;;;;;;;;;;;;;23.56;30.39;102178.03;5044219;28;19976;-73
2022/07/10 03:49:44;;;;;;;;;;;;;;;23.55;30.82;102168.00;5050991;28;20329;-72
2022/07/10 03:52:10;;;;;;;;;;;;;;;23.55;30.87;102172.66;5043593;28;20346;-73
2022/07/10 03:54:37;;;;;;;;;;;;;;;23.54;30.80;102182.88;5053023;28;19924;-72
2022/07/10 03:59:48;;;;;;;;;;;;;;;23.51;30.41;102180.41;5043905;28;20011;-73
2022/07/10 04:02:15;;;;;;;;;;;;;;;23.49;30.51;102174.13;5057396;28;20032;-73
2022/07/10 04:04:42;;;;;;;;;;;;;;;23.48;30.93;102173.25;5059952;28;19921;-73
2022/07/10 04:07:08;;;;;;;;;;;;;;;23.46;30.56;102166.13;5050348;28;19925;-72
2022/07/10 04:09:35;;;;;;;;;;;;;;;23.45;30.97;102172.69;5049358;28;19944;-72
2022/07/10 04:12:01;;;;;;;;;;;;;;;23.42;30.74;102168.31;5045924;28;19921;-73
2022/07/10 04:14:28;;;;;;;;;;;;;;;23.42;30.71;102171.09;5051134;28;20411;-73
2022/07/10 04:16:54;;;;;;;;;;;;;;;23.42;31.17;102167.44;5062607;28;20656;-72
2022/07/10 04:19:21;;;;;;;;;;;;;;;23.40;30.96;102166.72;5050489;28;19935;-72
2022/07/10 04:21:48;;;;;;;;;;;;;;;23.38;31.22;102166.88;5048260;28;20100;-72
2022/07/10 04:24:14;;;;;;;;;;;;;;;23.37;30.79;102165.16;5064773;28;19967;-72
2022/07/10 04:26:41;;;;;;;;;;;;;;;23.36;30.79;102168.06;5049975;28;19921;-73
2022/07/10 04:29:07;;;;;;;;;;;;;;;23.35;30.99;102172.72;5040656;28;20353;-73
2022/07/10 04:31:34;;;;;;;;;;;;;;;23.32;31.00;102173.03;5054961;28;20015;-73
2022/07/10 04:34:00;;;;;;;;;;;;;;;23.33;30.81;102183.09;5065195;28;19927;-72
2022/07/10 04:36:27;;;;;;;;;;;;;;;23.31;31.17;102176.81;5055731;28;20012;-72
2022/07/10 04:38:53;;;;;;;;;;;;;;;23.30;31.05;102180.66;5044952;28;19920;-72
2022/07/10 04:41:19;;;;;;;;;;;;;;;23.29;30.99;102175.25;5049792;28;19927;-72
2022/07/10 04:43:46;;;;;;;;;;;;;;;23.29;31.02;102180.78;5050142;28;20027;-72
2022/07/10 04:46:12;;;;;;;;;;;;;;;23.27;31.08;102171.75;5055033;28;20011;-72
2022/07/10 04:48:39;;;;;;;;;;;;;;;23.26;31.05;102179.19;5054215;28;20169;-72
2022/07/10 04:51:06;;;;;;;;;;;;;;;23.27;31.05;102182.84;5058686;28;19920;-72
2022/07/10 04:53:32;;;;;;;;;;;;;;;23.27;31.58;102180.06;5059904;28;19920;-72
2022/07/10 04:55:58;;;;;;;;;;;;;;;23.26;31.61;102178.31;5048019;28;19924;-72
2022/07/10 04:58:25;;;;;;;;;;;;;;;23.26;31.67;102173.66;5048745;28;19921;-72
2022/07/10 05:00:51;;;;;;;;;;;;;;;23.25;31.43;102176.56;5049001;28;19982;-77
2022/07/10 05:03:21;;;;;;;;;;;;;;;23.25;31.35;102179.34;5053251;28;19932;-82
2022/07/10 05:05:58;;;;;;;;;;;;;;;23.24;31.77;102178.47;5046328;28;19994;-79
2022/07/10 05:08:24;;;;;;;;;;;;;;;23.23;32.13;102176.72;5046231;28;19921;-80
2022/07/10 05:10:51;;;;;;;;;;;;;;;23.24;31.58;102172.91;5049217;28;19972;-79
2022/07/10 05:13:17;;;;;;;;;;;;;;;23.26;32.12;102178.31;5056471;28;20389;-82
2022/07/10 05:15:45;;;;;;;;;;;;;;;23.28;31.70;102185.47;5053307;28;19964;-70
2022/07/10 05:18:12;;;;;;;;;;;;;;;23.34;32.24;102181.19;5043896;28;19921;-71
2022/07/10 05:20:42;;;;;;;;;;;;;;;23.40;32.43;102181.44;5054146;28;19967;-71
2022/07/10 05:23:09;;;;;;;;;;;;;;;23.48;32.14;102183.44;5053013;28;19925;-71
2022/07/10 05:25:37;;;;;;;;;;;;;;;23.58;32.38;102183.44;5046823;28;19967;-71
2022/07/10 05:28:04;;;;;;;;;;;;;;;23.70;32.12;102182.19;5060317;28;20019;-71
2022/07/10 05:30:31;;;;;;;;;;;;;;;23.82;32.64;102187.34;5060175;28;19978;-71
2022/07/10 05:32:58;;;;;;;;;;;;;;;23.96;32.36;102193.41;5049199;28;20012;-71
2022/07/10 05:35:24;;;;;;;;;;;;;;;24.10;32.67;102182.63;5049355;28;19967;-71
2022/07/10 05:37:51;;;;;;;;;;;;;;;24.25;32.29;102180.19;5055336;28;20394;-71
2022/07/10 05:40:18;;;;;;;;;;;;;;;24.41;32.61;102190.56;5050561;28;20022;-71
2022/07/10 05:42:44;;;;;;;;;;;;;;;24.56;32.54;102191.75;5041331;28;19964;-71
2022/07/10 05:45:11;;;;;;;;;;;;;;;24.71;32.30;102198.44;5049464;28;19924;-71
2022/07/10 05:47:37;;;;;;;;;;;;;;;24.84;32.42;102192.47;5050588;28;19964;-71
2022/07/10 05:50:04;;;;;;;;;;;;;;;24.97;32.21;102182.69;5047541;28;19924;-71
2022/07/10 05:52:31;;;;;;;;;;;;;;;25.10;32.07;102196.16;5040563;28;19975;-71
2022/07/10 05:54:57;;;;;;;;;;;;;;;25.21;31.71;102193.06;5048688;28;19921;-71
2022/07/10 05:57:24;;;;;;;;;;;;;;;25.29;31.52;102198.69;5046335;28;19925;-70
2022/07/10 05:59:51;;;;;;;;;;;;;;;25.37;31.55;102198.72;5049094;28;19978;-71
2022/07/10 06:02:17;;;;;;;;;;;;;;;25.43;31.58;102197.19;5037887;28;20299;-71
2022/07/10 06:04:50;;;;;;;;;;;;;;;25.48;31.49;102200.34;5047828;28;20398;-71
2022/07/10 06:07:16;;;;;;;;;;;;;;;25.51;31.33;102207.50;5033663;28;20005;-71
2022/07/10 06:09:43;;;;;;;;;;;;;;;25.52;31.09;102198.09;5077972;28;20379;-71
2022/07/10 06:12:10;;;;;;;;;;;;;;;25.52;30.89;102198.09;5045687;28;19920;-71
2022/07/10 06:14:36;;;;;;;;;;;;;;;25.51;31.26;102190.81;5051873;28;19974;-71
2022/07/10 06:17:03;;;;;;;;;;;;;;;25.49;31.17;102184.53;5049105;28;20011;-71
2022/07/10 06:19:29;;;;;;;;;;;;;;;25.47;30.79;102190.25;5043616;28;19921;-70
2022/07/10 06:25:03;;;;;;;;;;;;;;;25.40;31.18;102186.41;4962041;28;20460;-71
2022/07/10 06:27:30;;;;;;;;;;;;;;;25.36;30.62;102194.22;4971803;28;20501;-70
2022/07/10 06:29:57;;;;;;;;;;;;;;;25.32;31.15;102194.72;4970480;28;19922;-71
2022/07/10 06:32:24;;;;;;;;;;;;;;;25.27;31.10;102199.91;4968053;28;19985;-71
2022/07/10 06:34:51;;;;;;;;;;;;;;;25.23;31.11;102196.56;4971842;28;19953;-71
2022/07/10 06:37:18;;;;;;;;;;;;;;;25.20;31.08;102204.38;4971254;28;19922;-71
2022/07/10 06:39:45;;;;;;;;;;;;;;;25.15;31.19;102196.53;4972026;28;19922;-71
2022/07/10 06:42:12;;;;;;;;;;;;;;;25.11;30.92;102202.59;4973597;28;19964;-71
2022/07/10 06:44:38;;;;;;;;;;;;;;;25.07;30.88;102201.16;4967613;28;20536;-71
2022/07/10 06:49:51;;;;;;;;;;;;;;;24.97;31.23;102199.38;4972370;28;19930;-71
2022/07/10 06:52:18;;;;;;;;;;;;;;;24.93;30.99;102189.63;4976655;28;20190;-71
2022/07/10 06:54:45;;;;;;;;;;;;;;;24.90;31.28;102198.25;4970214;28;19922;-71
2022/07/10 06:57:12;;;;;;;;;;;;;;;24.88;30.83;102196.66;5040726;28;20482;-71
2022/07/10 06:59:38;;;;;;;;;;;;;;;24.84;31.33;102192.47;5049692;28;20011;-71
2022/07/10 07:02:05;;;;;;;;;;;;;;;24.81;31.26;102202.00;5046133;28;20007;-71
2022/07/10 07:04:32;;;;;;;;;;;;;;;24.79;31.39;102206.84;5052593;28;20741;-71
2022/07/10 07:06:58;;;;;;;;;;;;;;;24.78;31.16;102207.91;5054763;28;19975;-70
2022/07/10 07:09:24;;;;;;;;;;;;;;;24.75;31.33;102204.56;5050985;28;19975;-71
2022/07/10 07:11:51;;;;;;;;;;;;;;;24.72;30.87;102202.09;5064930;28;20008;-71
2022/07/10 07:14:17;;;;;;;;;;;;;;;24.70;31.26;102210.63;5068134;28;19967;-71
2022/07/10 07:16:57;;;;;;;;;;;;;;;24.69;31.47;102208.00;5057162;28;20013;-71
2022/07/10 07:24:55;;;;;;;;;;;;;;;24.60;31.41;102202.38;5057123;28;20464;-71
2022/07/10 07:27:22;;;;;;;;;;;;;;;24.58;31.11;102198.88;5056261;28;20007;-71
2022/07/10 07:29:48;;;;;;;;;;;;;;;24.57;31.03;102197.13;5051175;28;20320;-80
2022/07/10 07:32:15;;;;;;;;;;;;;;;24.56;31.00;102203.72;5051614;28;19948;-79
2022/07/10 07:34:41;;;;;;;;;;;;;;;24.56;31.60;102216.72;5050489;28;19982;-79
2022/07/10 07:37:08;;;;;;;;;;;;;;;24.53;31.59;102209.63;5050827;28;19970;-79
2022/07/10 07:39:34;;;;;;;;;;;;;;;24.51;31.11;102210.81;5050673;28;20011;-80
2022/07/10 07:42:00;;;;;;;;;;;;;;;24.49;31.04;102210.94;5044326;28;20042;-80
2022/07/10 07:44:27;;;;;;;;;;;;;;;24.47;31.39;102215.78;5056948;28;19948;-79
2022/07/10 07:46:55;;;;;;;;;;;;;;;24.46;31.49;102214.03;5055850;28;19924;-80
2022/07/10 07:49:22;;;;;;;;;;;;;;;24.43;31.06;102217.16;5059541;28;19920;-80
2022/07/10 07:51:48;;;;;;;;;;;;;;;24.41;31.19;102221.13;5052229;28;19924;-79
2022/07/10 07:54:16;;;;;;;;;;;;;;;24.39;31.23;102223.16;5049021;28;19921;-79
2022/07/10 07:56:42;;;;;;;;;;;;;;;24.35;31.65;102219.84;5052116;28;19956;-79
2022/07/10 07:59:10;;;;;;;;;;;;;;;24.32;31.65;102220.16;5068903;28;19932;-79
2022/07/10 08:01:37;;;;;;;;;;;;;;;24.29;31.69;102226.06;5040788;28;19947;-80
2022/07/10 08:04:03;;;;;;;;;;;;;;;24.27;31.85;102228.09;5055817;28;19924;-80
2022/07/10 08:06:36;;;;;;;;;;;;;;;24.24;31.95;102236.75;5053159;28;19924;-80
2022/07/10 08:09:02;;;;;;;;;;;;;;;24.22;31.66;102233.25;5053278;28;20003;-79
2022/07/10 08:11:29;;;;;;;;;;;;;;;24.20;31.88;102241.75;5076022;28;19975;-80
2022/07/10 08:13:55;;;;;;;;;;;;;;;24.18;32.28;102229.00;5054408;28;19951;-81
2022/07/10 08:16:22;;;;;;;;;;;;;;;24.16;31.91;102233.84;5057085;28;20294;-82
2022/07/10 08:18:50;;;;;;;;;;;;;;;24.13;32.39;102225.84;5047793;28;20437;-80
2022/07/10 08:21:17;;;;;;;;;;;;;;;24.10;32.48;102235.34;5063539;28;19932;-80
2022/07/10 08:23:43;;;;;;;;;;;;;;;24.08;32.40;102239.31;5051372;28;21250;-80
2022/07/10 08:26:11;;;;;;;;;;;;;;;24.07;32.07;102234.78;5043516;28;20422;-80
2022/07/10 08:28:37;;;;;;;;;;;;;;;24.05;31.96;102234.09;5048096;28;19967;-79
2022/07/10 08:31:04;;;;;;;;;;;;;;;24.03;32.00;102227.81;5047351;28;19928;-80
2022/07/10 08:33:31;;;;;;;;;;;;;;;24.02;32.38;102234.41;5044630;28;19924;-79
2022/07/10 08:36:00;;;;;;;;;;;;;;;23.99;32.09;102230.03;5055078;28;19942;-79
2022/07/10 08:38:46;;;;;;;;;;;;;;;23.98;32.41;102227.41;5053816;28;20003;-80
2022/07/10 08:41:13;;;;;;;;;;;;;;;23.97;32.46;102226.53;5052956;28;20387;-80
2022/07/10 08:43:40;;;;;;;;;;;;;;;23.95;32.47;102225.84;5055195;28;20390;-80
2022/07/10 08:46:10;;;;;;;;;;;;;;;23.95;32.28;102230.50;5047878;28;19931;-80
2022/07/10 08:48:37;;;;;;;;;;;;;;;23.93;33.03;102224.22;5051760;28;19974;-80
2022/07/10 08:51:06;;;;;;;;;;;;;;;23.92;32.55;102225.25;5057232;28;20358;-80
2022/07/10 08:53:34;;;;;;;;;;;;;;;23.89;33.16;102224.53;5057625;28;19971;-80
2022/07/10 08:56:00;;;;;;;;;;;;;;;23.87;32.56;102218.28;5047531;28;20024;-80
2022/07/10 08:58:27;;;;;;;;;;;;;;;23.86;32.69;102219.31;5050992;28;19956;-80
2022/07/10 09:00:54;;;;;;;;;;;;;;;23.84;32.96;102218.59;5060581;28;19955;-80
2022/07/10 09:03:20;;;;;;;;;;;;;;;23.82;33.43;102215.09;5061229;28;19982;-80
2022/07/10 09:05:47;;;;;;;;;;;;;;;23.83;33.15;102218.75;5060623;28;19921;-80
2022/07/10 09:08:28;;;;;;;;;;;;;;;23.82;33.63;102209.53;5076351;28;19927;-80
2022/07/10 09:11:13;;;;;;;;;;;;;;;23.83;33.11;102211.28;5052161;28;19970;-80
2022/07/10 09:13:50;;;;;;;;;;;;;;;23.84;33.67;102209.41;5043032;28;19931;-80
2022/07/10 09:16:20;;;;;;;;;;;;;;;23.86;33.62;102207.34;5042675;28;20019;-79
2022/07/10 09:18:47;;;;;;;;;;;;;;;23.88;33.23;102208.06;5049036;28;19920;-80
2022/07/10 09:21:13;;;;;;;;;;;;;;;23.93;33.27;102202.03;5045423;28;20467;-80
2022/07/10 09:23:40;;;;;;;;;;;;;;;23.95;33.71;102203.63;5047774;28;19978;-80
2022/07/10 09:26:06;;;;;;;;;;;;;;;23.99;33.79;102206.94;5044315;28;19927;-80
2022/07/10 09:28:33;;;;;;;;;;;;;;;24.03;33.42;102202.84;5051532;28;19955;-80
2022/07/10 09:30:59;;;;;;;;;;;;;;;24.07;33.56;102196.81;5053339;28;20179;-81
2022/07/10 09:33:30;;;;;;;;;;;;;;;24.09;33.67;102205.84;5054537;28;19924;-78
2022/07/10 09:36:13;;;;;;;;;;;;;;;24.13;33.63;102198.94;5050361;28;19929;-79
2022/07/10 09:38:40;;;;;;;;;;;;;;;24.17;33.39;102199.50;5044596;28;19925;-80
2022/07/10 09:41:29;;;;;;;;;;;;;;;24.19;33.58;102194.69;5048006;28;19927;-82
2022/07/10 09:43:57;;;;;;;;;;;;;;;24.21;33.29;102195.44;5050689;28;19986;-78
2022/07/10 09:46:28;;;;;;;;;;;;;;;24.22;33.40;102194.38;5044915;28;19952;-83
2022/07/10 09:49:07;;;;;;;;;;;;;;;24.25;33.51;102194.06;5042759;28;19921;-79
2022/07/10 09:51:35;;;;;;;;;;;;;;;24.26;33.19;102193.91;5052664;28;19927;-79
2022/07/10 09:54:03;;;;;;;;;;;;;;;24.28;33.61;102193.78;5044935;28;20004;-80
2022/07/10 09:56:42;;;;;;;;;;;;;;;24.31;33.70;102196.22;5045329;28;20375;-80
2022/07/10 09:59:11;;;;;;;;;;;;;;;24.31;33.70;102196.22;5048270;28;19939;-80
2022/07/10 10:01:41;;;;;;;;;;;;;;;24.32;33.68;102192.41;5063835;28;19962;-82
2022/07/10 10:04:08;;;;;;;;;;;;;;;24.34;33.24;102195.91;5067262;28;19988;-81
2022/07/10 10:06:39;;;;;;;;;;;;;;;24.34;33.21;102179.25;5061731;28;19928;-83
2022/07/10 10:09:12;;;;;;;;;;;;;;;24.35;33.25;102186.53;5054123;28;19987;-84
2022/07/10 10:11:40;;;;;;;;;;;;;;;24.36;33.62;102188.28;5054013;28;20012;-82
2022/07/10 10:14:08;;;;;;;;;;;;;;;24.37;33.68;102184.50;5060521;28;19963;-81
2022/07/10 10:16:34;;;;;;;;;;;;;;;24.38;33.82;102177.03;5056277;28;20359;-82
2022/07/10 10:21:48;;;;;;;;;;;;;;;24.37;33.76;102180.84;5052691;28;20436;-81
2022/07/10 10:24:16;;;;;;;;;;;;;;;24.37;33.97;102176.16;5049558;28;20007;-82
2022/07/10 10:26:43;;;;;;;;;;;;;;;24.38;33.90;102179.81;5049556;28;19968;-81
2022/07/10 10:29:09;;;;;;;;;;;;;;;24.37;33.91;102173.38;5056618;28;19924;-81
2022/07/10 10:31:36;;;;;;;;;;;;;;;24.37;33.61;102167.84;5053874;28;19929;-80
2022/07/10 10:34:03;;;;;;;;;;;;;;;24.38;33.55;102168.72;5050042;28;19921;-81
2022/07/10 10:36:44;;;;;;;;;;;;;;;24.40;33.53;102166.63;5050178;28;19978;-81
2022/07/10 10:39:13;;;;;;;;;;;;;;;24.40;34.11;102164.72;5061879;28;20027;-80
2022/07/10 10:41:41;;;;;;;;;;;;;;;24.41;34.11;102163.69;5058067;28;19979;-81
2022/07/10 10:44:08;;;;;;;;;;;;;;;24.43;33.68;102164.41;5051323;28;20291;-81
2022/07/10 10:46:36;;;;;;;;;;;;;;;24.44;33.66;102163.38;5054613;28;19921;-82
2022/07/10 10:49:06;;;;;;;;;;;;;;;24.47;33.78;102159.38;5048099;28;20343;-82
2022/07/10 10:51:51;;;;;;;;;;;;;;;24.48;33.70;102161.13;5048635;28;20395;-82
2022/07/10 10:54:18;;;;;;;;;;;;;;;24.49;33.64;102157.31;5046064;28;19921;-82
2022/07/10 10:56:44;;;;;;;;;;;;;;;24.48;34.18;102153.66;5052245;28;19963;-82
2022/07/10 10:59:31;;;;;;;;;;;;;;;24.48;33.96;102145.34;5049620;28;19924;-82
2022/07/10 11:02:16;;;;;;;;;;;;;;;24.50;34.18;102156.28;5065152;28;20019;-82
2022/07/10 11:04:43;;;;;;;;;;;;;;;24.50;34.12;102147.97;5048300;28;19921;-83
2022/07/10 11:07:12;;;;;;;;;;;;;;;24.51;34.46;102146.94;5051867;28;19924;-83
2022/07/10 11:09:39;;;;;;;;;;;;;;;24.51;34.40;102144.16;5053211;28;20451;-82
2022/07/10 11:12:06;;;;;;;;;;;;;;;24.51;34.07;102149.72;5049729;28;19925;-82
2022/07/10 11:14:34;;;;;;;;;;;;;;;24.51;33.99;102139.47;5059516;28;19952;-82
2022/07/10 11:17:01;;;;;;;;;;;;;;;24.53;33.97;102145.75;5051434;28;19928;-82
2022/07/10 11:19:28;;;;;;;;;;;;;;;24.54;34.41;102138.28;5052747;28;20379;-82
2022/07/10 11:22:14;;;;;;;;;;;;;;;24.54;34.35;102132.75;5044185;28;19952;-82
2022/07/10 11:24:59;;;;;;;;;;;;;;;24.55;33.88;102128.91;5045315;28;19978;-83
2022/07/10 11:27:44;;;;;;;;;;;;;;;24.56;33.81;102141.75;5049653;28;20004;-82
2022/07/10 11:30:11;;;;;;;;;;;;;;;24.54;33.92;102138.28;5060429;28;19952;-83
2022/07/10 11:32:38;;;;;;;;;;;;;;;24.53;34.08;102142.09;5059060;28;19929;-83
2022/07/10 11:35:11;;;;;;;;;;;;;;;24.53;33.92;102136.53;5070579;28;19920;-82
2022/07/10 11:37:51;;;;;;;;;;;;;;;24.52;34.38;102141.22;5059648;28;19920;-82
2022/07/10 11:40:22;;;;;;;;;;;;;;;24.50;34.49;102134.06;5055103;28;20299;-82
2022/07/10 11:42:59;;;;;;;;;;;;;;;24.49;34.25;102140.66;5052566;28;19924;-86
2022/07/10 11:45:31;;;;;;;;;;;;;;;24.47;34.37;102132.50;5062158;28;20007;-85
2022/07/10 11:47:58;;;;;;;;;;;;;;;24.46;34.38;102132.69;5056460;28;19925;-84
2022/07/10 11:50:26;;;;;;;;;;;;;;;24.43;34.46;102144.09;5065325;28;19974;-85
2022/07/10 11:52:54;;;;;;;;;;;;;;;24.40;34.82;102134.16;5068225;28;19920;-84
2022/07/10 11:55:26;;;;;;;;;;;;;;;24.38;34.70;102130.69;5063707;28;19928;-84
2022/07/10 11:57:53;;;;;;;;;;;;;;;24.36;35.29;102134.66;5050365;28;19949;-84
2022/07/10 12:00:26;;;;;;;;;;;;;;;24.34;35.20;102131.19;5054858;28;20256;-84
2022/07/10 12:02:54;;;;;;;;;;;;;;;24.32;34.98;102127.69;5050219;28;20356;-82
2022/07/10 12:05:34;;;;;;;;;;;;;;;24.31;35.24;102126.81;5076398;28;20711;-83
2022/07/10 12:08:01;;;;;;;;;;;;;;;24.30;35.11;102122.28;5070499;28;19926;-84
2022/07/10 12:10:28;;;;;;;;;;;;;;;24.30;35.01;102125.06;5077844;28;20321;-84
2022/07/10 12:13:09;;;;;;;;;;;;;;;24.32;35.06;102131.34;5071087;28;19920;-83
2022/07/10 12:15:43;;;;;;;;;;;;;;;24.32;35.58;102134.09;5062056;28;19960;-86
2022/07/10 12:18:23;;;;;;;;;;;;;;;24.31;35.53;102131.50;5042692;28;19986;-87
2022/07/10 12:21:01;;;;;;;;;;;;;;;24.32;35.74;102130.47;5063669;28;19964;-86
2022/07/10 12:23:30;;;;;;;;;;;;;;;24.31;35.60;102135.13;5065072;28;19997;-86
2022/07/10 12:25:56;;;;;;;;;;;;;;;24.31;35.49;102143.47;5046460;28;19974;-87
2022/07/10 12:28:24;;;;;;;;;;;;;;;24.32;35.09;102139.66;5061136;28;19928;-87
2022/07/10 12:30:50;;;;;;;;;;;;;;;24.32;35.25;102144.34;5063840;28;19968;-87
2022/07/10 12:33:21;;;;;;;;;;;;;;;24.31;35.22;102149.00;5030812;28;20331;-86
2022/07/10 12:35:50;;;;;;;;;;;;;;;24.30;35.28;102141.72;5041242;28;19921;-86
2022/07/10 12:38:17;;;;;;;;;;;;;;;24.30;35.69;102141.72;5031713;28;19921;-87
2022/07/10 12:40:46;;;;;;;;;;;;;;;24.30;35.68;102136.16;5046443;28;19968;-87
2022/07/10 12:43:24;;;;;;;;;;;;;;;24.29;35.80;102142.78;5040889;28;19921;-86
2022/07/10 12:46:09;;;;;;;;;;;;;;;24.30;35.46;102141.72;5003898;28;19922;-84
2022/07/10 12:48:37;;;;;;;;;;;;;;;24.30;35.79;102143.63;4984067;28;19944;-84
2022/07/10 12:51:24;;;;;;;;;;;;;;;24.29;35.63;102137.22;4996171;28;20001;-84
2022/07/10 12:53:51;;;;;;;;;;;;;;;24.29;35.65;102140.00;5009630;28;19953;-85
2022/07/10 12:56:32;;;;;;;;;;;;;;;24.29;35.47;102131.69;5007542;28;19921;-85
2022/07/10 12:58:59;;;;;;;;;;;;;;;24.29;36.07;102136.34;5004085;28;20010;-85
2022/07/10 13:01:40;;;;;;;;;;;;;;;24.28;36.00;102132.72;5016823;28;20299;-84